Terminal Aerodrome Forecast
Issued by NWS Cleveland, OH

Home | Current Version | Previous Version | Graphics & Text | Print | Product List | Glossary On
Versions: 1 2 3 4 5 6 7 8 9 10 11 12 13 14 15 16 17 18 19 20 21 22 23 24 25
000
FTUS41 KCLE 172048 AAA
TAFCLE
TAF AMD
KCLE 172048Z 1721/1824 02007KT P6SM SCT045 BKN200
     FM180200 15004KT P6SM SCT250
     FM180900 21004KT 6SM BR SCT045
     FM181400 24004KT P6SM SCT050 BKN120
     FM181700 34005KT P6SM FEW040 SCT080=

USA.gov is the U.S. government's official web portal to all federal, state and local government web resources and services.